Anderson Springs, California
Current Conditions -  °F | °C
As of 9:53 PM on Friday 24 Oct 2014 (Local Time) from KSTS Reporting Station
Overcast Overcast  
Wind Chill: 62°   Ceiling: 3900
Heat Index: 62°   Visibility: 10mi
Dew Point: 55°   Wind: 6mph
Humidity: 78%   Direction: 150°SSE
Pressure: 29.89"   Gusts: NA
Location:  38.7763°N, 122.598°W
Report Text: KSTS 250453Z AUTO 15005KT 10SM OVC039 17/13 A2989 RMK AO2 SLP114 T01670128
Loading
Personal Weather Stations






























Interactive Weather Map New forecast layout! Learn more

10-Day Weather Forecast

Advertisements
Track Severe Weather on mobile